Terminal Aerodrome Forecast
Issued by NWS Wilmington, NC

Home | Current Version | Previous Version | Text Only | Print | Product List | Glossary On
Versions: 1 2 3 4 5 6 7 8 9 10 11 12 13 14 15 16 17 18 19 20 21 22 23 24
000
FTUS42 KILM 032300
TAFLBT
TAF
KLBT 032320Z 0400/0424 VRB03KT 3SM BR OVC005
     FM041200 21008KT P6SM BKN004
     FM041500 22011G19KT P6SM BKN008
     FM041800 23015G23KT P6SM BKN020=

USA.gov is the U.S. government's official web portal to all federal, state and local government web resources and services.